createdAt,value
2022-08-05T00:01:48.994Z,58.70
2022-08-05T00:04:16.833Z,58.90
2022-08-05T00:06:44.493Z,58.40
2022-08-05T00:09:15.967Z,58.70
2022-08-05T00:11:48.741Z,58.90
2022-08-05T00:14:17.513Z,58.90
2022-08-05T00:16:52.821Z,58.30
2022-08-05T00:19:22.328Z,58.40
2022-08-05T00:21:49.559Z,58.80
2022-08-05T00:24:24.102Z,58.50
2022-08-05T00:26:52.964Z,58.70
2022-08-05T00:29:22.788Z,58.60
2022-08-05T00:32:09.451Z,58.90
2022-08-05T00:34:53.952Z,59.50
2022-08-05T00:37:26.202Z,59.20
2022-08-05T00:39:57.844Z,59.20
2022-08-05T00:42:32.975Z,58.80
2022-08-05T00:45:00.243Z,58.90
2022-08-05T00:47:31.733Z,59.30
2022-08-05T00:50:13.931Z,59.20
2022-08-05T00:52:42.072Z,59.70
2022-08-05T00:55:13.844Z,59.30
2022-08-05T00:57:58.089Z,59.20
2022-08-05T01:00:26.317Z,58.90
2022-08-05T01:02:53.161Z,58.90
2022-08-05T01:05:19.973Z,58.80
2022-08-05T01:08:40.528Z,58.80
2022-08-05T01:10:41.513Z,59.30
2022-08-05T01:13:27.513Z,59.40
2022-08-05T01:16:15.833Z,59.20
2022-08-05T01:18:57.834Z,59.30
2022-08-05T01:22:01.007Z,59.20
2022-08-05T01:24:59.563Z,59.30
2022-08-05T01:27:57.931Z,59.90
2022-08-05T01:30:33.748Z,59.30
2022-08-05T01:33:08.423Z,59.40
2022-08-05T01:35:51.639Z,59.60
2022-08-05T01:38:26.917Z,59.50
2022-08-05T01:40:57.361Z,59.80
2022-08-05T01:43:25.776Z,59.50
2022-08-05T01:45:56.762Z,59.40
2022-08-05T01:48:24.841Z,59.50
2022-08-05T01:50:53.701Z,59.40
2022-08-05T01:53:55.151Z,59.40
2022-08-05T01:56:11.730Z,60.00
2022-08-05T01:58:45.183Z,59.70
2022-08-05T02:01:23.265Z,60.00
2022-08-05T02:03:55.465Z,60.10
2022-08-05T02:06:37.637Z,60.00
2022-08-05T02:09:06.037Z,60.50
2022-08-05T02:11:42.249Z,60.20
2022-08-05T02:14:12.728Z,59.70
2022-08-05T02:16:46.482Z,60.00
2022-08-05T02:19:25.278Z,60.40
2022-08-05T02:21:59.208Z,60.60
2022-08-05T02:24:32.359Z,60.30
2022-08-05T02:27:18.748Z,60.60
2022-08-05T02:29:59.772Z,60.00
2022-08-05T02:32:31.511Z,60.30
2022-08-05T02:35:02.169Z,60.50
2022-08-05T02:37:41.530Z,60.40
2022-08-05T02:40:10.544Z,60.50
2022-08-05T02:42:39.537Z,60.40
2022-08-05T02:45:09.108Z,60.80
2022-08-05T02:48:07.113Z,60.80
2022-08-05T02:50:30.616Z,61.40
2022-08-05T02:52:58.473Z,60.80
2022-08-05T02:55:52.002Z,60.80
2022-08-05T02:58:15.244Z,61.10
2022-08-05T03:00:46.044Z,61.30
2022-08-05T03:03:16.605Z,61.70
2022-08-05T03:06:55.330Z,61.30
2022-08-05T03:08:31.585Z,61.80
2022-08-05T03:11:45.932Z,61.40
2022-08-05T03:13:52.059Z,61.10
2022-08-05T03:16:29.959Z,60.90
2022-08-05T03:19:12.507Z,61.00
2022-08-05T03:21:41.710Z,61.40
2022-08-05T03:24:16.833Z,61.80
2022-08-05T03:26:43.642Z,60.70
2022-08-05T03:29:17.358Z,60.90
2022-08-05T03:31:56.771Z,60.80
2022-08-05T03:34:28.960Z,61.00
2022-08-05T03:36:55.817Z,61.60
2022-08-05T03:39:27.061Z,61.30
2022-08-05T03:41:56.147Z,61.50
2022-08-05T03:44:23.521Z,61.80
2022-08-05T03:46:50.411Z,62.10
2022-08-05T03:49:17.487Z,62.30
2022-08-05T03:52:38.455Z,62.60
2022-08-05T03:55:34.481Z,62.00
2022-08-05T03:57:42.645Z,61.70
2022-08-05T04:00:15.653Z,62.00
2022-08-05T04:02:51.996Z,62.70
2022-08-05T04:05:25.827Z,62.20
2022-08-05T04:07:58.584Z,62.50
2022-08-05T04:10:27.458Z,62.30
2022-08-05T04:12:55.227Z,62.10
2022-08-05T04:15:24.531Z,62.00
2022-08-05T04:17:56.151Z,61.90
2022-08-05T04:20:24.515Z,62.10
2022-08-05T04:22:51.303Z,61.80
2022-08-05T04:25:19.948Z,62.10
2022-08-05T04:28:11.314Z,62.00
2022-08-05T04:30:39.743Z,62.00
2022-08-05T04:33:06.513Z,62.20
2022-08-05T04:36:09.438Z,62.10
2022-08-05T04:38:21.217Z,62.20
2022-08-05T04:40:50.720Z,62.70
2022-08-05T04:43:17.901Z,63.20
2022-08-05T04:45:54.891Z,63.10
2022-08-05T04:48:27.862Z,63.60
2022-08-05T04:51:03.365Z,63.20
2022-08-05T04:53:38.635Z,63.60
2022-08-05T04:56:33.447Z,63.40
2022-08-05T04:58:54.712Z,63.40
2022-08-05T05:02:05.470Z,63.30
2022-08-05T05:04:08.307Z,64.30
2022-08-05T05:06:40.899Z,64.20
2022-08-05T05:09:14.145Z,64.50
2022-08-05T05:11:54.633Z,64.60
2022-08-05T05:14:31.637Z,64.70
2022-08-05T05:16:59.326Z,64.70
2022-08-05T05:19:27.352Z,64.50
2022-08-05T05:22:06.250Z,64.40
2022-08-05T05:24:58.006Z,64.30
2022-08-05T05:27:45.819Z,64.30
2022-08-05T05:30:29.866Z,64.30
2022-08-05T05:33:03.492Z,64.40
2022-08-05T05:35:39.619Z,64.30
2022-08-05T05:38:13.156Z,63.90
2022-08-05T05:40:47.968Z,64.70
2022-08-05T05:43:22.394Z,64.00
2022-08-05T05:46:10.692Z,63.80
2022-08-05T05:48:43.985Z,63.80
2022-08-05T05:51:15.732Z,64.30
2022-08-05T05:53:45.911Z,63.90
2022-08-05T05:56:31.815Z,64.60
2022-08-05T05:59:03.260Z,63.30
2022-08-05T06:01:36.891Z,63.20
2022-08-05T06:04:06.199Z,62.80
2022-08-05T06:06:34.773Z,62.80
2022-08-05T06:09:03.243Z,62.90
2022-08-05T06:11:30.947Z,62.90
2022-08-05T06:13:57.742Z,62.80
2022-08-05T06:16:36.824Z,62.60
2022-08-05T06:19:05.970Z,62.80
2022-08-05T06:21:36.159Z,62.50
2022-08-05T06:24:05.998Z,62.20
2022-08-05T06:26:35.141Z,62.60
2022-08-05T06:29:23.684Z,62.80
2022-08-05T06:31:51.847Z,62.60
2022-08-05T06:34:20.133Z,62.70
2022-08-05T06:36:58.231Z,62.40
2022-08-05T06:39:27.681Z,62.00
2022-08-05T06:41:55.802Z,62.30
2022-08-05T06:44:24.399Z,61.80
2022-08-05T06:46:54.549Z,61.30
2022-08-05T06:50:00.406Z,61.20
2022-08-05T06:52:08.053Z,60.70
2022-08-05T06:54:54.771Z,60.60
2022-08-05T06:58:02.881Z,60.50
2022-08-05T07:00:09.674Z,60.50
2022-08-05T07:02:43.317Z,60.30
2022-08-05T07:05:14.254Z,60.20
2022-08-05T07:07:45.313Z,60.20
2022-08-05T07:10:14.920Z,60.00
2022-08-05T07:12:43.617Z,60.10
2022-08-05T07:15:34.188Z,60.10
2022-08-05T07:18:08.651Z,60.10
2022-08-05T07:20:37.108Z,60.20
2022-08-05T07:23:06.499Z,60.00
2022-08-05T07:25:55.961Z,60.20
2022-08-05T07:28:20.131Z,60.30
2022-08-05T07:30:52.769Z,60.40
2022-08-05T07:33:36.464Z,60.10
2022-08-05T07:36:21.178Z,60.20
2022-08-05T07:38:49.164Z,60.20
2022-08-05T07:42:12.920Z,60.10
2022-08-05T07:44:18.685Z,60.00
2022-08-05T07:46:49.185Z,60.00
2022-08-05T07:49:18.827Z,60.00
2022-08-05T07:51:53.490Z,59.90
2022-08-05T07:54:23.333Z,59.90
2022-08-05T07:57:01.306Z,59.90
2022-08-05T07:59:41.078Z,60.00
2022-08-05T08:02:15.395Z,59.90
2022-08-05T08:04:45.869Z,59.80
2022-08-05T08:07:12.994Z,59.80
2022-08-05T08:09:39.830Z,59.80
2022-08-05T08:12:18.523Z,59.80
2022-08-05T08:14:53.844Z,59.80
2022-08-05T08:17:21.882Z,59.80
2022-08-05T08:20:43.013Z,59.80
2022-08-05T08:22:37.010Z,59.70
2022-08-05T08:25:16.402Z,59.70
2022-08-05T08:27:44.921Z,59.70
2022-08-05T08:30:20.295Z,59.70
2022-08-05T08:33:04.324Z,59.60
2022-08-05T08:35:34.863Z,59.60
2022-08-05T08:38:07.558Z,59.70
2022-08-05T08:40:35.118Z,59.80
2022-08-05T08:43:03.527Z,59.60
2022-08-05T08:45:51.939Z,59.60
2022-08-05T08:48:41.411Z,59.60
2022-08-05T08:51:30.664Z,59.60
2022-08-05T08:53:55.925Z,59.50
2022-08-05T08:56:22.737Z,58.70
2022-08-05T08:58:54.201Z,58.80
2022-08-05T09:01:21.141Z,59.10
2022-08-05T09:03:54.208Z,59.00
2022-08-05T09:06:29.478Z,58.60
2022-08-05T09:08:57.709Z,58.60
2022-08-05T09:11:53.354Z,58.20
2022-08-05T09:14:58.725Z,58.00
2022-08-05T09:16:59.235Z,58.30
2022-08-05T09:19:28.029Z,58.00
2022-08-05T09:22:22.258Z,58.20
2022-08-05T09:25:01.553Z,58.30
2022-08-05T09:28:04.775Z,58.70
2022-08-05T09:30:23.467Z,58.90
2022-08-05T09:32:51.586Z,59.00
2022-08-05T09:35:26.747Z,58.90
2022-08-05T09:38:17.915Z,59.00
2022-08-05T09:40:44.507Z,59.20
2022-08-05T09:43:40.487Z,59.20
2022-08-05T09:46:28.057Z,58.80
2022-08-05T09:49:08.024Z,59.10
2022-08-05T09:51:42.761Z,58.80
2022-08-05T09:54:11.269Z,59.10
2022-08-05T09:56:38.878Z,59.30
2022-08-05T09:59:07.156Z,59.40
2022-08-05T10:01:35.706Z,58.90
2022-08-05T10:04:10.027Z,59.10
2022-08-05T10:06:38.077Z,59.30
2022-08-05T10:09:27.477Z,58.80
2022-08-05T10:12:31.402Z,58.40
2022-08-05T10:14:54.447Z,58.80
2022-08-05T10:17:37.680Z,59.10
2022-08-05T10:20:09.779Z,59.20
2022-08-05T10:22:38.916Z,59.40
2022-08-05T10:25:14.468Z,59.50
2022-08-05T10:28:09.662Z,59.50
2022-08-05T10:32:47.266Z,59.60
2022-08-05T10:33:15.597Z,59.70
2022-08-05T10:35:44.276Z,59.70
2022-08-05T10:38:13.049Z,59.80
2022-08-05T10:40:46.907Z,59.80
2022-08-05T10:43:35.542Z,59.90
2022-08-05T10:46:06.476Z,60.00
2022-08-05T10:48:39.592Z,60.10
2022-08-05T10:51:23.033Z,60.00
2022-08-05T10:53:58.466Z,60.10
2022-08-05T10:56:36.398Z,60.20
2022-08-05T10:59:07.252Z,60.30
2022-08-05T11:01:54.948Z,61.30
2022-08-05T11:04:30.923Z,60.50
2022-08-05T11:07:06.917Z,60.50
2022-08-05T11:09:46.230Z,60.40
2022-08-05T11:12:50.458Z,60.40
2022-08-05T11:15:23.203Z,60.40
2022-08-05T11:17:57.499Z,60.60
2022-08-05T11:20:41.556Z,60.40
2022-08-05T11:23:33.372Z,60.60
2022-08-05T11:26:09.074Z,60.60
2022-08-05T11:28:43.002Z,60.60
2022-08-05T11:31:58.122Z,60.50
2022-08-05T11:34:36.575Z,60.50
2022-08-05T11:37:06.171Z,60.60
2022-08-05T11:40:00.798Z,60.60
2022-08-05T11:42:32.265Z,60.70
2022-08-05T11:45:05.415Z,60.70
2022-08-05T11:47:49.533Z,60.60
2022-08-05T11:50:17.123Z,60.80
2022-08-05T11:52:46.111Z,60.80
2022-08-05T11:55:15.722Z,60.80
2022-08-05T11:58:09.444Z,60.90
2022-08-05T12:00:38.615Z,60.90
2022-08-05T12:03:16.660Z,60.90
2022-08-05T12:05:59.256Z,61.00
2022-08-05T12:08:26.773Z,61.00
2022-08-05T12:10:55.726Z,61.10
2022-08-05T12:13:47.547Z,61.00
2022-08-05T12:16:18.867Z,61.00
2022-08-05T12:18:52.380Z,61.10
2022-08-05T12:21:21.566Z,61.10
2022-08-05T12:24:03.306Z,61.10
2022-08-05T12:26:32.832Z,61.10
2022-08-05T12:28:59.979Z,61.10
2022-08-05T12:31:33.487Z,61.10
2022-08-05T12:34:14.713Z,61.10
2022-08-05T12:36:48.384Z,61.20
2022-08-05T12:39:15.304Z,61.20
2022-08-05T12:41:43.891Z,61.30
2022-08-05T12:44:14.310Z,61.30
2022-08-05T12:46:51.413Z,61.30
2022-08-05T12:49:19.132Z,61.30
2022-08-05T12:52:10.511Z,61.30
2022-08-05T12:54:35.984Z,61.40
2022-08-05T12:57:09.466Z,61.30
2022-08-05T12:59:46.984Z,61.20
2022-08-05T13:02:36.280Z,61.20
2022-08-05T13:05:06.830Z,61.10
2022-08-05T13:07:59.751Z,61.10
2022-08-05T13:10:20.605Z,61.10
2022-08-05T13:12:51.284Z,61.90
2022-08-05T13:15:42.076Z,61.00
2022-08-05T13:18:19.913Z,61.10
2022-08-05T13:20:47.316Z,61.00
2022-08-05T13:23:16.352Z,61.10
2022-08-05T13:25:52.817Z,61.00
2022-08-05T13:28:26.742Z,60.90
2022-08-05T13:30:53.751Z,61.10
2022-08-05T13:34:21.464Z,61.00
2022-08-05T13:36:09.197Z,61.00
2022-08-05T13:38:42.370Z,61.00
2022-08-05T13:41:10.065Z,60.80
2022-08-05T13:43:44.988Z,60.80
2022-08-05T13:46:44.238Z,60.90
2022-08-05T13:49:10.406Z,60.60
2022-08-05T13:51:40.931Z,60.40
2022-08-05T13:54:12.772Z,60.30
2022-08-05T13:56:50.370Z,60.20
2022-08-05T13:59:20.391Z,60.10
2022-08-05T14:01:56.456Z,60.10
2022-08-05T14:04:27.906Z,60.20
2022-08-05T14:07:12.010Z,60.20
2022-08-05T14:09:43.045Z,60.10
2022-08-05T14:12:17.766Z,60.10
2022-08-05T14:14:45.359Z,60.00
2022-08-05T14:17:16.866Z,59.90
2022-08-05T14:20:00.946Z,59.80
2022-08-05T14:22:34.411Z,59.50
2022-08-05T14:25:01.458Z,59.50
2022-08-05T14:27:28.481Z,59.40
2022-08-05T14:29:56.329Z,59.40
2022-08-05T14:32:27.760Z,59.40
2022-08-05T14:34:56.854Z,59.40
2022-08-05T14:37:47.347Z,59.40
2022-08-05T14:40:14.276Z,59.30
2022-08-05T14:42:44.119Z,59.30
2022-08-05T14:45:11.289Z,59.20
2022-08-05T14:48:02.632Z,59.10
2022-08-05T14:50:26.112Z,58.90
2022-08-05T14:52:57.514Z,58.90
2022-08-05T14:55:25.903Z,58.80
2022-08-05T14:58:11.595Z,58.60
2022-08-05T15:00:39.497Z,58.60
2022-08-05T15:03:25.745Z,58.50
2022-08-05T15:06:13.188Z,58.60
2022-08-05T15:08:59.009Z,58.70
2022-08-05T15:11:51.292Z,58.70
2022-08-05T15:14:33.334Z,58.60
2022-08-05T15:17:01.509Z,58.40
2022-08-05T15:19:30.758Z,58.50
2022-08-05T15:22:00.211Z,58.30
2022-08-05T15:24:27.797Z,57.80
2022-08-05T15:26:56.041Z,57.70
2022-08-05T15:29:24.033Z,57.70
2022-08-05T15:31:57.258Z,57.10
2022-08-05T15:34:32.149Z,57.30
2022-08-05T15:37:06.233Z,57.20
2022-08-05T15:41:01.110Z,57.30
2022-08-05T15:42:49.927Z,57.30
2022-08-05T15:45:09.726Z,57.30
2022-08-05T15:47:36.839Z,57.30
2022-08-05T15:50:07.400Z,55.10
2022-08-05T15:52:54.408Z,56.10
2022-08-05T15:55:25.055Z,57.20
2022-08-05T15:58:16.773Z,56.50
2022-08-05T16:00:50.625Z,56.60
2022-08-05T16:03:32.817Z,56.70
2022-08-05T16:06:00.937Z,56.40
2022-08-05T16:08:31.019Z,56.30
2022-08-05T16:10:57.926Z,56.20
2022-08-05T16:13:34.486Z,56.20
2022-08-05T16:16:01.957Z,56.20
2022-08-05T16:18:30.436Z,56.10
2022-08-05T16:20:57.738Z,56.20
2022-08-05T16:23:24.483Z,56.30
2022-08-05T16:26:03.943Z,56.40
2022-08-05T16:28:30.762Z,56.30
2022-08-05T16:30:57.581Z,56.50
2022-08-05T16:33:24.340Z,56.40
2022-08-05T16:35:54.165Z,56.20
2022-08-05T16:38:25.248Z,56.00
2022-08-05T16:41:00.019Z,54.80
2022-08-05T16:43:30.584Z,55.70
2022-08-05T16:46:05.930Z,55.90
2022-08-05T16:48:39.743Z,56.00
2022-08-05T16:51:09.330Z,56.00
2022-08-05T16:54:04.738Z,56.00
2022-08-05T16:56:25.595Z,55.80
2022-08-05T16:58:52.403Z,55.90
2022-08-05T17:01:19.318Z,55.80
2022-08-05T17:03:46.464Z,55.80
2022-08-05T17:06:13.508Z,55.40
2022-08-05T17:08:53.286Z,55.20
2022-08-05T17:11:23.940Z,53.80
2022-08-05T17:14:00.230Z,53.90
2022-08-05T17:16:36.376Z,54.30
2022-08-05T17:19:07.034Z,53.20
2022-08-05T17:21:36.322Z,53.90
2022-08-05T17:24:14.287Z,51.10
2022-08-05T17:26:51.463Z,52.10
2022-08-05T17:29:22.373Z,52.60
2022-08-05T17:31:59.811Z,51.80
2022-08-05T17:34:29.546Z,53.00
2022-08-05T17:36:59.033Z,53.30
2022-08-05T17:39:34.021Z,53.50
2022-08-05T17:42:17.325Z,53.50
2022-08-05T17:44:50.842Z,53.40
2022-08-05T17:47:18.251Z,52.80
2022-08-05T17:50:00.069Z,53.00
2022-08-05T17:52:31.708Z,50.80
2022-08-05T17:54:58.681Z,50.40
2022-08-05T17:57:25.464Z,52.00
2022-08-05T18:00:05.149Z,51.70
2022-08-05T18:02:32.609Z,51.50
2022-08-05T18:04:59.459Z,51.40
2022-08-05T18:07:40.887Z,50.40
2022-08-05T18:10:10.749Z,50.60
2022-08-05T18:12:38.447Z,50.90
2022-08-05T18:15:08.878Z,51.70
2022-08-05T18:17:58.856Z,51.10
2022-08-05T18:20:29.646Z,50.90
2022-08-05T18:23:00.654Z,51.00
2022-08-05T18:25:38.953Z,51.20
2022-08-05T18:28:06.213Z,51.50
2022-08-05T18:30:34.771Z,52.50
2022-08-05T18:33:01.988Z,51.80
2022-08-05T18:36:00.670Z,51.80
2022-08-05T18:38:19.115Z,51.90
2022-08-05T18:41:53.374Z,52.10
2022-08-05T18:43:42.709Z,52.10
2022-08-05T18:46:11.006Z,52.30
2022-08-05T18:48:41.801Z,52.40
2022-08-05T18:52:06.302Z,52.30
2022-08-05T18:53:55.956Z,52.10
2022-08-05T18:56:25.154Z,52.30
2022-08-05T18:58:54.773Z,52.50
2022-08-05T19:01:47.230Z,52.70
2022-08-05T19:04:12.280Z,53.00
2022-08-05T19:06:45.460Z,53.10
2022-08-05T19:09:12.427Z,53.30
2022-08-05T19:12:00.310Z,53.60
2022-08-05T19:14:44.922Z,53.90
2022-08-05T19:17:14.398Z,54.30
2022-08-05T19:19:46.317Z,54.70
2022-08-05T19:22:17.123Z,54.10
2022-08-05T19:24:54.563Z,54.10
2022-08-05T19:27:23.426Z,54.20
2022-08-05T19:29:50.375Z,54.50
2022-08-05T19:32:18.994Z,57.20
2022-08-05T19:34:55.034Z,58.50
2022-08-05T19:37:22.561Z,63.90
2022-08-05T19:40:02.607Z,69.20
2022-08-05T19:42:36.412Z,66.70
2022-08-05T19:45:06.836Z,65.30
2022-08-05T19:47:37.465Z,66.90
2022-08-05T19:50:07.632Z,66.60
2022-08-05T19:52:37.154Z,69.80
2022-08-05T19:55:07.209Z,68.10
2022-08-05T19:57:49.130Z,67.00
2022-08-05T20:00:22.507Z,67.20
2022-08-05T20:02:50.571Z,67.70
2022-08-05T20:05:24.775Z,67.10
2022-08-05T20:07:56.319Z,68.00
2022-08-05T20:10:25.921Z,68.30
2022-08-05T20:12:52.891Z,69.30
2022-08-05T20:15:47.775Z,69.80
2022-08-05T20:18:10.819Z,70.10
2022-08-05T20:20:56.844Z,70.30
2022-08-05T20:23:40.409Z,70.00
2022-08-05T20:26:16.557Z,69.90
2022-08-05T20:28:45.016Z,69.30
2022-08-05T20:31:11.848Z,69.20
2022-08-05T20:33:42.193Z,70.70
2022-08-05T20:36:10.238Z,70.60
2022-08-05T20:38:38.110Z,70.90
2022-08-05T20:41:08.431Z,71.30
2022-08-05T20:43:58.611Z,71.40
2022-08-05T20:46:24.968Z,71.00
2022-08-05T20:48:53.583Z,70.90
2022-08-05T20:51:21.590Z,70.50
2022-08-05T20:53:56.726Z,70.70
2022-08-05T20:56:31.879Z,70.50
2022-08-05T20:59:13.891Z,70.00
2022-08-05T21:01:42.687Z,71.10
2022-08-05T21:04:11.512Z,70.30
2022-08-05T21:06:45.832Z,70.80
2022-08-05T21:09:14.302Z,72.20
2022-08-05T21:12:06.952Z,72.90
2022-08-05T21:14:28.543Z,73.90
2022-08-05T21:17:02.916Z,72.60
2022-08-05T21:19:47.311Z,71.20
2022-08-05T21:22:15.288Z,72.10
2022-08-05T21:24:45.272Z,71.40
2022-08-05T21:27:16.007Z,72.40
2022-08-05T21:29:43.418Z,71.70
2022-08-05T21:32:19.770Z,71.30
2022-08-05T21:35:08.497Z,71.90
2022-08-05T21:37:35.143Z,71.00
2022-08-05T21:40:13.039Z,72.30
2022-08-05T21:42:44.036Z,71.70
2022-08-05T21:45:11.980Z,71.70
2022-08-05T21:47:56.594Z,71.80
2022-08-05T21:50:26.204Z,72.00
2022-08-05T21:52:53.136Z,72.40
2022-08-05T21:56:01.644Z,73.10
2022-08-05T21:58:06.824Z,73.90
2022-08-05T22:00:37.283Z,73.30
2022-08-05T22:03:04.105Z,73.70
2022-08-05T22:05:48.733Z,72.00
2022-08-05T22:08:22.430Z,71.50
2022-08-05T22:10:51.466Z,72.60
2022-08-05T22:14:06.489Z,73.80
2022-08-05T22:16:20.407Z,73.50
2022-08-05T22:18:53.810Z,74.00
2022-08-05T22:21:26.786Z,73.60
2022-08-05T22:24:02.922Z,73.50
2022-08-05T22:26:35.691Z,73.20
2022-08-05T22:29:02.621Z,73.10
2022-08-05T22:31:30.802Z,73.70
2022-08-05T22:34:12.921Z,73.30
2022-08-05T22:36:53.653Z,73.60
2022-08-05T22:39:21.595Z,73.30
2022-08-05T22:42:10.115Z,74.40
2022-08-05T22:44:35.350Z,74.80
2022-08-05T22:47:05.779Z,73.80
2022-08-05T22:50:19.393Z,73.50
2022-08-05T22:52:22.947Z,74.20
2022-08-05T22:54:59.865Z,74.10
2022-08-05T22:57:26.837Z,74.50
2022-08-05T23:00:01.305Z,74.50
2022-08-05T23:02:30.246Z,74.60
2022-08-05T23:04:57.909Z,74.20
2022-08-05T23:07:30.430Z,74.60
2022-08-05T23:10:02.017Z,75.20
2022-08-05T23:12:29.672Z,75.50
2022-08-05T23:15:03.015Z,75.00
2022-08-05T23:17:34.405Z,75.70
2022-08-05T23:20:10.511Z,75.60
2022-08-05T23:22:47.681Z,76.00
2022-08-05T23:25:17.392Z,75.90
2022-08-05T23:28:02.706Z,75.50
2022-08-05T23:30:31.346Z,75.90
2022-08-05T23:32:58.202Z,76.20
2022-08-05T23:35:28.544Z,76.50
2022-08-05T23:38:02.603Z,76.30
2022-08-05T23:40:31.272Z,76.20
2022-08-05T23:42:58.020Z,76.30
2022-08-05T23:45:25.627Z,76.50
2022-08-05T23:47:53.672Z,76.60
2022-08-05T23:50:20.816Z,76.60
2022-08-05T23:52:49.733Z,76.60
2022-08-05T23:55:18.815Z,76.60
2022-08-05T23:57:48.944Z,76.80
